sensor_id;sensor_type;location;lat;lon;timestamp;P1;durP1;ratioP1;P2;durP2;ratioP2
17398;SDS011;8817;48.170;8.592;2023-04-06T00:00:45;9.40;;;6.97;;
17398;SDS011;8817;48.170;8.592;2023-04-06T00:03:13;13.83;;;7.93;;
17398;SDS011;8817;48.170;8.592;2023-04-06T00:05:40;25.37;;;10.73;;
17398;SDS011;8817;48.170;8.592;2023-04-06T00:08:07;35.77;;;11.63;;
17398;SDS011;8817;48.170;8.592;2023-04-06T00:10:34;23.60;;;10.23;;
17398;SDS011;8817;48.170;8.592;2023-04-06T00:13:02;20.90;;;9.47;;
17398;SDS011;8817;48.170;8.592;2023-04-06T00:15:30;18.60;;;8.07;;
17398;SDS011;8817;48.170;8.592;2023-04-06T00:17:57;14.70;;;7.47;;
17398;SDS011;8817;48.170;8.592;2023-04-06T00:20:24;11.80;;;6.70;;
17398;SDS011;8817;48.170;8.592;2023-04-06T00:22:51;7.20;;;6.50;;
17398;SDS011;8817;48.170;8.592;2023-04-06T00:25:19;7.13;;;6.13;;
17398;SDS011;8817;48.170;8.592;2023-04-06T00:27:46;10.23;;;6.50;;
17398;SDS011;8817;48.170;8.592;2023-04-06T00:30:13;6.60;;;5.97;;
17398;SDS011;8817;48.170;8.592;2023-04-06T00:32:41;6.43;;;5.73;;
17398;SDS011;8817;48.170;8.592;2023-04-06T00:35:08;6.57;;;5.97;;
17398;SDS011;8817;48.170;8.592;2023-04-06T00:37:35;7.00;;;6.30;;
17398;SDS011;8817;48.170;8.592;2023-04-06T00:40:03;7.03;;;6.27;;
17398;SDS011;8817;48.170;8.592;2023-04-06T00:42:30;6.90;;;5.90;;
17398;SDS011;8817;48.170;8.592;2023-04-06T00:44:58;7.53;;;6.60;;
17398;SDS011;8817;48.170;8.592;2023-04-06T00:47:26;7.07;;;6.17;;
17398;SDS011;8817;48.170;8.592;2023-04-06T00:49:54;6.77;;;6.17;;
17398;SDS011;8817;48.170;8.592;2023-04-06T00:52:21;6.57;;;5.97;;
17398;SDS011;8817;48.170;8.592;2023-04-06T00:54:48;7.47;;;6.33;;
17398;SDS011;8817;48.170;8.592;2023-04-06T00:57:16;7.93;;;6.10;;
17398;SDS011;8817;48.170;8.592;2023-04-06T00:59:43;5.93;;;5.53;;
17398;SDS011;8817;48.170;8.592;2023-04-06T01:02:10;9.23;;;5.90;;
17398;SDS011;8817;48.170;8.592;2023-04-06T01:04:37;8.93;;;5.70;;
17398;SDS011;8817;48.170;8.592;2023-04-06T01:07:06;6.20;;;5.60;;
17398;SDS011;8817;48.170;8.592;2023-04-06T01:09:33;5.87;;;5.37;;
17398;SDS011;8817;48.170;8.592;2023-04-06T01:12:00;6.53;;;5.87;;
17398;SDS011;8817;48.170;8.592;2023-04-06T01:14:28;6.67;;;5.83;;
17398;SDS011;8817;48.170;8.592;2023-04-06T01:16:57;8.37;;;6.50;;
17398;SDS011;8817;48.170;8.592;2023-04-06T01:19:25;6.37;;;5.77;;
17398;SDS011;8817;48.170;8.592;2023-04-06T01:21:52;6.47;;;5.97;;
17398;SDS011;8817;48.170;8.592;2023-04-06T01:24:20;6.07;;;5.60;;
17398;SDS011;8817;48.170;8.592;2023-04-06T01:26:47;5.83;;;5.33;;
17398;SDS011;8817;48.170;8.592;2023-04-06T01:29:14;6.23;;;5.73;;
17398;SDS011;8817;48.170;8.592;2023-04-06T01:31:41;6.33;;;5.57;;
17398;SDS011;8817;48.170;8.592;2023-04-06T01:34:09;6.03;;;5.63;;
17398;SDS011;8817;48.170;8.592;2023-04-06T01:36:36;6.53;;;5.93;;
17398;SDS011;8817;48.170;8.592;2023-04-06T01:39:03;5.87;;;5.27;;
17398;SDS011;8817;48.170;8.592;2023-04-06T01:41:31;6.33;;;5.77;;
17398;SDS011;8817;48.170;8.592;2023-04-06T01:43:58;6.43;;;5.83;;
17398;SDS011;8817;48.170;8.592;2023-04-06T01:46:25;6.63;;;5.57;;
17398;SDS011;8817;48.170;8.592;2023-04-06T01:48:52;7.30;;;5.87;;
17398;SDS011;8817;48.170;8.592;2023-04-06T01:51:19;6.00;;;5.40;;
17398;SDS011;8817;48.170;8.592;2023-04-06T01:53:46;5.33;;;4.93;;
17398;SDS011;8817;48.170;8.592;2023-04-06T01:56:14;6.43;;;5.80;;
17398;SDS011;8817;48.170;8.592;2023-04-06T01:58:42;6.17;;;5.33;;
17398;SDS011;8817;48.170;8.592;2023-04-06T02:01:09;7.63;;;5.80;;
17398;SDS011;8817;48.170;8.592;2023-04-06T02:03:36;11.07;;;6.30;;
17398;SDS011;8817;48.170;8.592;2023-04-06T02:06:03;6.30;;;5.80;;
17398;SDS011;8817;48.170;8.592;2023-04-06T02:08:30;6.93;;;5.40;;
17398;SDS011;8817;48.170;8.592;2023-04-06T02:10:57;5.97;;;5.47;;
17398;SDS011;8817;48.170;8.592;2023-04-06T02:13:24;5.53;;;5.10;;
17398;SDS011;8817;48.170;8.592;2023-04-06T02:15:52;6.57;;;6.00;;
17398;SDS011;8817;48.170;8.592;2023-04-06T02:18:19;6.50;;;5.87;;
17398;SDS011;8817;48.170;8.592;2023-04-06T02:20:47;6.00;;;5.57;;
17398;SDS011;8817;48.170;8.592;2023-04-06T02:23:14;8.73;;;5.97;;
17398;SDS011;8817;48.170;8.592;2023-04-06T02:25:41;9.47;;;6.80;;
17398;SDS011;8817;48.170;8.592;2023-04-06T02:28:08;5.87;;;5.33;;
17398;SDS011;8817;48.170;8.592;2023-04-06T02:30:35;6.70;;;6.10;;
17398;SDS011;8817;48.170;8.592;2023-04-06T02:33:03;5.93;;;5.40;;
17398;SDS011;8817;48.170;8.592;2023-04-06T02:35:30;6.13;;;5.63;;
17398;SDS011;8817;48.170;8.592;2023-04-06T02:37:57;6.53;;;5.93;;
17398;SDS011;8817;48.170;8.592;2023-04-06T02:40:24;6.60;;;6.07;;
17398;SDS011;8817;48.170;8.592;2023-04-06T02:42:51;6.10;;;5.60;;
17398;SDS011;8817;48.170;8.592;2023-04-06T02:45:18;6.10;;;5.63;;
17398;SDS011;8817;48.170;8.592;2023-04-06T02:47:45;6.17;;;5.67;;
17398;SDS011;8817;48.170;8.592;2023-04-06T02:50:14;6.83;;;5.80;;
17398;SDS011;8817;48.170;8.592;2023-04-06T02:52:41;6.07;;;5.57;;
17398;SDS011;8817;48.170;8.592;2023-04-06T02:55:08;6.33;;;5.73;;
17398;SDS011;8817;48.170;8.592;2023-04-06T02:57:35;7.37;;;6.53;;
17398;SDS011;8817;48.170;8.592;2023-04-06T03:00:02;9.23;;;5.87;;
17398;SDS011;8817;48.170;8.592;2023-04-06T03:02:30;7.67;;;5.80;;
17398;SDS011;8817;48.170;8.592;2023-04-06T03:04:57;5.87;;;5.40;;
17398;SDS011;8817;48.170;8.592;2023-04-06T03:07:25;6.23;;;5.73;;
17398;SDS011;8817;48.170;8.592;2023-04-06T03:09:52;7.03;;;6.40;;
17398;SDS011;8817;48.170;8.592;2023-04-06T03:12:19;6.03;;;5.43;;
17398;SDS011;8817;48.170;8.592;2023-04-06T03:14:46;8.00;;;5.60;;
17398;SDS011;8817;48.170;8.592;2023-04-06T03:17:13;6.70;;;5.77;;
17398;SDS011;8817;48.170;8.592;2023-04-06T03:19:40;5.90;;;5.30;;
17398;SDS011;8817;48.170;8.592;2023-04-06T03:22:07;6.60;;;6.00;;
17398;SDS011;8817;48.170;8.592;2023-04-06T03:24:36;6.20;;;5.60;;
17398;SDS011;8817;48.170;8.592;2023-04-06T03:27:03;5.77;;;5.37;;
17398;SDS011;8817;48.170;8.592;2023-04-06T03:29:31;6.30;;;5.70;;
17398;SDS011;8817;48.170;8.592;2023-04-06T03:31:58;6.10;;;5.70;;
17398;SDS011;8817;48.170;8.592;2023-04-06T03:34:25;6.23;;;5.83;;
17398;SDS011;8817;48.170;8.592;2023-04-06T03:36:52;5.83;;;5.43;;
17398;SDS011;8817;48.170;8.592;2023-04-06T03:39:19;5.60;;;5.23;;
17398;SDS011;8817;48.170;8.592;2023-04-06T03:41:47;7.97;;;6.20;;
17398;SDS011;8817;48.170;8.592;2023-04-06T03:44:14;5.93;;;5.57;;
17398;SDS011;8817;48.170;8.592;2023-04-06T03:46:41;6.20;;;5.70;;
17398;SDS011;8817;48.170;8.592;2023-04-06T03:49:08;5.57;;;5.27;;
17398;SDS011;8817;48.170;8.592;2023-04-06T03:51:35;6.23;;;5.73;;
17398;SDS011;8817;48.170;8.592;2023-04-06T03:54:03;7.60;;;6.83;;
17398;SDS011;8817;48.170;8.592;2023-04-06T03:56:30;7.97;;;6.17;;
17398;SDS011;8817;48.170;8.592;2023-04-06T03:58:58;10.60;;;6.17;;
17398;SDS011;8817;48.170;8.592;2023-04-06T04:01:26;6.73;;;6.03;;
17398;SDS011;8817;48.170;8.592;2023-04-06T04:03:53;6.37;;;5.87;;
17398;SDS011;8817;48.170;8.592;2023-04-06T04:06:20;6.53;;;5.93;;
17398;SDS011;8817;48.170;8.592;2023-04-06T04:08:47;6.80;;;6.10;;
17398;SDS011;8817;48.170;8.592;2023-04-06T04:11:14;6.20;;;5.70;;
17398;SDS011;8817;48.170;8.592;2023-04-06T04:13:41;6.50;;;6.00;;
17398;SDS011;8817;48.170;8.592;2023-04-06T04:16:10;5.90;;;5.50;;
17398;SDS011;8817;48.170;8.592;2023-04-06T04:18:37;5.70;;;5.40;;
17398;SDS011;8817;48.170;8.592;2023-04-06T04:21:04;6.33;;;5.77;;
17398;SDS011;8817;48.170;8.592;2023-04-06T04:23:31;8.40;;;5.93;;
17398;SDS011;8817;48.170;8.592;2023-04-06T04:25:58;6.30;;;5.70;;
17398;SDS011;8817;48.170;8.592;2023-04-06T04:28:24;6.23;;;5.73;;
17398;SDS011;8817;48.170;8.592;2023-04-06T04:30:51;6.20;;;5.60;;
17398;SDS011;8817;48.170;8.592;2023-04-06T04:33:20;6.53;;;5.93;;
17398;SDS011;8817;48.170;8.592;2023-04-06T04:35:47;6.50;;;5.90;;
17398;SDS011;8817;48.170;8.592;2023-04-06T04:38:14;6.10;;;5.63;;
17398;SDS011;8817;48.170;8.592;2023-04-06T04:40:41;8.73;;;6.00;;
17398;SDS011;8817;48.170;8.592;2023-04-06T04:43:07;6.47;;;5.80;;
17398;SDS011;8817;48.170;8.592;2023-04-06T04:45:35;6.60;;;6.00;;
17398;SDS011;8817;48.170;8.592;2023-04-06T04:48:02;5.83;;;5.50;;
17398;SDS011;8817;48.170;8.592;2023-04-06T04:50:31;7.07;;;6.40;;
17398;SDS011;8817;48.170;8.592;2023-04-06T04:52:58;6.10;;;5.70;;
17398;SDS011;8817;48.170;8.592;2023-04-06T04:55:25;6.23;;;5.83;;
17398;SDS011;8817;48.170;8.592;2023-04-06T04:57:52;6.23;;;5.70;;
17398;SDS011;8817;48.170;8.592;2023-04-06T05:00:19;5.87;;;5.57;;
17398;SDS011;8817;48.170;8.592;2023-04-06T05:02:46;6.23;;;5.83;;
17398;SDS011;8817;48.170;8.592;2023-04-06T05:05:13;7.07;;;6.47;;
17398;SDS011;8817;48.170;8.592;2023-04-06T05:07:42;7.00;;;6.43;;
17398;SDS011;8817;48.170;8.592;2023-04-06T05:10:09;6.73;;;6.23;;
17398;SDS011;8817;48.170;8.592;2023-04-06T05:12:36;6.90;;;6.20;;
17398;SDS011;8817;48.170;8.592;2023-04-06T05:15:04;6.37;;;5.93;;
17398;SDS011;8817;48.170;8.592;2023-04-06T05:17:32;7.10;;;6.40;;
17398;SDS011;8817;48.170;8.592;2023-04-06T05:20:00;6.53;;;6.03;;
17398;SDS011;8817;48.170;8.592;2023-04-06T05:22:27;6.70;;;6.10;;
17398;SDS011;8817;48.170;8.592;2023-04-06T05:24:55;6.80;;;6.20;;
17398;SDS011;8817;48.170;8.592;2023-04-06T05:27:22;6.27;;;5.87;;
17398;SDS011;8817;48.170;8.592;2023-04-06T05:29:50;6.97;;;6.40;;
17398;SDS011;8817;48.170;8.592;2023-04-06T05:32:17;6.87;;;6.33;;
17398;SDS011;8817;48.170;8.592;2023-04-06T05:34:47;6.57;;;6.07;;
17398;SDS011;8817;48.170;8.592;2023-04-06T05:37:14;7.03;;;6.43;;
17398;SDS011;8817;48.170;8.592;2023-04-06T05:39:41;6.87;;;6.23;;
17398;SDS011;8817;48.170;8.592;2023-04-06T05:42:09;6.63;;;6.13;;
17398;SDS011;8817;48.170;8.592;2023-04-06T05:44:37;6.47;;;5.87;;
17398;SDS011;8817;48.170;8.592;2023-04-06T05:47:04;17.83;;;6.03;;
17398;SDS011;8817;48.170;8.592;2023-04-06T05:49:31;7.50;;;6.63;;
17398;SDS011;8817;48.170;8.592;2023-04-06T05:51:58;5.97;;;5.50;;
17398;SDS011;8817;48.170;8.592;2023-04-06T05:54:25;6.50;;;5.80;;
17398;SDS011;8817;48.170;8.592;2023-04-06T05:56:52;6.87;;;6.03;;
17398;SDS011;8817;48.170;8.592;2023-04-06T05:59:20;6.70;;;5.80;;
17398;SDS011;8817;48.170;8.592;2023-04-06T06:01:48;7.00;;;6.30;;
17398;SDS011;8817;48.170;8.592;2023-04-06T06:04:15;6.47;;;6.17;;
17398;SDS011;8817;48.170;8.592;2023-04-06T06:06:42;7.23;;;6.60;;
17398;SDS011;8817;48.170;8.592;2023-04-06T06:09:09;6.63;;;6.13;;
17398;SDS011;8817;48.170;8.592;2023-04-06T06:11:36;6.67;;;6.10;;
17398;SDS011;8817;48.170;8.592;2023-04-06T06:14:03;6.83;;;6.33;;
17398;SDS011;8817;48.170;8.592;2023-04-06T06:16:32;8.17;;;7.30;;
17398;SDS011;8817;48.170;8.592;2023-04-06T06:18:59;6.77;;;6.30;;
17398;SDS011;8817;48.170;8.592;2023-04-06T06:21:26;6.93;;;6.33;;
17398;SDS011;8817;48.170;8.592;2023-04-06T06:23:53;10.63;;;7.10;;
17398;SDS011;8817;48.170;8.592;2023-04-06T06:26:20;7.30;;;6.70;;
17398;SDS011;8817;48.170;8.592;2023-04-06T06:28:47;7.63;;;6.30;;
17398;SDS011;8817;48.170;8.592;2023-04-06T06:31:14;7.30;;;6.60;;
17398;SDS011;8817;48.170;8.592;2023-04-06T06:33:44;6.90;;;6.33;;
17398;SDS011;8817;48.170;8.592;2023-04-06T06:36:15;8.53;;;6.80;;
17398;SDS011;8817;48.170;8.592;2023-04-06T06:38:42;6.90;;;6.40;;
17398;SDS011;8817;48.170;8.592;2023-04-06T06:41:09;7.60;;;6.90;;
17398;SDS011;8817;48.170;8.592;2023-04-06T06:43:36;7.70;;;6.90;;
17398;SDS011;8817;48.170;8.592;2023-04-06T06:46:03;9.33;;;7.53;;
17398;SDS011;8817;48.170;8.592;2023-04-06T06:48:31;7.67;;;6.80;;
17398;SDS011;8817;48.170;8.592;2023-04-06T06:50:59;6.93;;;6.40;;
17398;SDS011;8817;48.170;8.592;2023-04-06T06:53:26;7.57;;;6.90;;
17398;SDS011;8817;48.170;8.592;2023-04-06T06:55:53;7.30;;;6.60;;
17398;SDS011;8817;48.170;8.592;2023-04-06T06:58:21;8.37;;;7.03;;
17398;SDS011;8817;48.170;8.592;2023-04-06T07:00:48;6.27;;;5.87;;
17398;SDS011;8817;48.170;8.592;2023-04-06T07:03:15;7.27;;;6.57;;
17398;SDS011;8817;48.170;8.592;2023-04-06T07:05:45;6.40;;;5.90;;
17398;SDS011;8817;48.170;8.592;2023-04-06T07:08:16;7.67;;;6.97;;
17398;SDS011;8817;48.170;8.592;2023-04-06T07:10:43;7.40;;;6.43;;
17398;SDS011;8817;48.170;8.592;2023-04-06T07:13:10;6.87;;;6.17;;
17398;SDS011;8817;48.170;8.592;2023-04-06T07:15:37;8.00;;;6.20;;
17398;SDS011;8817;48.170;8.592;2023-04-06T07:18:04;10.10;;;6.23;;
17398;SDS011;8817;48.170;8.592;2023-04-06T07:20:31;7.20;;;6.60;;
17398;SDS011;8817;48.170;8.592;2023-04-06T07:22:58;9.67;;;6.80;;
17398;SDS011;8817;48.170;8.592;2023-04-06T07:25:26;7.10;;;6.50;;
17398;SDS011;8817;48.170;8.592;2023-04-06T07:27:53;6.70;;;6.10;;
17398;SDS011;8817;48.170;8.592;2023-04-06T07:30:20;7.30;;;6.60;;
17398;SDS011;8817;48.170;8.592;2023-04-06T07:32:50;7.27;;;6.30;;
17398;SDS011;8817;48.170;8.592;2023-04-06T07:35:17;6.90;;;6.30;;
17398;SDS011;8817;48.170;8.592;2023-04-06T07:37:44;7.10;;;6.50;;
17398;SDS011;8817;48.170;8.592;2023-04-06T07:40:11;8.93;;;6.47;;
17398;SDS011;8817;48.170;8.592;2023-04-06T07:42:40;7.03;;;6.17;;
17398;SDS011;8817;48.170;8.592;2023-04-06T07:45:07;9.17;;;7.07;;
17398;SDS011;8817;48.170;8.592;2023-04-06T07:47:34;7.13;;;6.53;;
17398;SDS011;8817;48.170;8.592;2023-04-06T07:50:01;7.37;;;6.67;;
17398;SDS011;8817;48.170;8.592;2023-04-06T07:52:29;7.37;;;6.67;;
17398;SDS011;8817;48.170;8.592;2023-04-06T07:54:57;8.13;;;6.67;;
17398;SDS011;8817;48.170;8.592;2023-04-06T07:57:24;7.50;;;6.50;;
17398;SDS011;8817;48.170;8.592;2023-04-06T07:59:52;7.30;;;6.37;;
17398;SDS011;8817;48.170;8.592;2023-04-06T08:02:19;6.37;;;5.77;;
17398;SDS011;8817;48.170;8.592;2023-04-06T08:04:47;7.23;;;6.10;;
17398;SDS011;8817;48.170;8.592;2023-04-06T08:07:14;8.43;;;6.40;;
17398;SDS011;8817;48.170;8.592;2023-04-06T08:09:41;7.37;;;6.37;;
17398;SDS011;8817;48.170;8.592;2023-04-06T08:12:08;6.50;;;5.97;;
17398;SDS011;8817;48.170;8.592;2023-04-06T08:14:35;6.57;;;6.00;;
17398;SDS011;8817;48.170;8.592;2023-04-06T08:17:03;6.60;;;5.80;;
17398;SDS011;8817;48.170;8.592;2023-04-06T08:19:30;6.80;;;6.20;;
17398;SDS011;8817;48.170;8.592;2023-04-06T08:21:57;6.23;;;5.70;;
17398;SDS011;8817;48.170;8.592;2023-04-06T08:24:24;6.20;;;5.70;;
17398;SDS011;8817;48.170;8.592;2023-04-06T08:26:51;6.23;;;5.73;;
17398;SDS011;8817;48.170;8.592;2023-04-06T08:29:18;6.80;;;6.10;;
17398;SDS011;8817;48.170;8.592;2023-04-06T08:31:46;6.70;;;6.07;;
17398;SDS011;8817;48.170;8.592;2023-04-06T08:34:14;6.43;;;5.90;;
17398;SDS011;8817;48.170;8.592;2023-04-06T08:36:41;7.27;;;5.97;;
17398;SDS011;8817;48.170;8.592;2023-04-06T08:39:08;6.97;;;6.30;;
17398;SDS011;8817;48.170;8.592;2023-04-06T08:41:35;6.00;;;5.50;;
17398;SDS011;8817;48.170;8.592;2023-04-06T08:44:02;8.07;;;6.17;;
17398;SDS011;8817;48.170;8.592;2023-04-06T08:46:30;6.70;;;6.10;;
17398;SDS011;8817;48.170;8.592;2023-04-06T08:48:57;6.17;;;5.77;;
17398;SDS011;8817;48.170;8.592;2023-04-06T08:51:27;6.73;;;6.07;;
17398;SDS011;8817;48.170;8.592;2023-04-06T08:53:55;6.33;;;5.83;;
17398;SDS011;8817;48.170;8.592;2023-04-06T08:56:23;6.40;;;5.80;;
17398;SDS011;8817;48.170;8.592;2023-04-06T08:58:51;7.30;;;6.60;;
17398;SDS011;8817;48.170;8.592;2023-04-06T09:01:20;6.40;;;5.80;;
17398;SDS011;8817;48.170;8.592;2023-04-06T09:03:49;9.53;;;6.50;;
17398;SDS011;8817;48.170;8.592;2023-04-06T09:06:17;7.50;;;6.43;;
17398;SDS011;8817;48.170;8.592;2023-04-06T09:08:46;7.13;;;6.43;;
17398;SDS011;8817;48.170;8.592;2023-04-06T09:11:13;6.37;;;5.87;;
17398;SDS011;8817;48.170;8.592;2023-04-06T09:13:44;6.85;;;6.15;;
17398;SDS011;8817;48.170;8.592;2023-04-06T09:16:12;7.30;;;6.17;;
17398;SDS011;8817;48.170;8.592;2023-04-06T09:18:39;6.53;;;5.93;;
17398;SDS011;8817;48.170;8.592;2023-04-06T09:21:06;7.10;;;5.63;;
17398;SDS011;8817;48.170;8.592;2023-04-06T09:23:34;10.33;;;6.33;;
17398;SDS011;8817;48.170;8.592;2023-04-06T09:26:06;10.27;;;5.77;;
17398;SDS011;8817;48.170;8.592;2023-04-06T09:28:41;8.97;;;5.70;;
17398;SDS011;8817;48.170;8.592;2023-04-06T09:31:13;6.67;;;6.07;;
17398;SDS011;8817;48.170;8.592;2023-04-06T09:33:40;6.87;;;6.17;;
17398;SDS011;8817;48.170;8.592;2023-04-06T09:36:10;7.03;;;6.43;;
17398;SDS011;8817;48.170;8.592;2023-04-06T09:38:39;7.23;;;6.23;;
17398;SDS011;8817;48.170;8.592;2023-04-06T09:41:22;7.93;;;5.90;;
17398;SDS011;8817;48.170;8.592;2023-04-06T09:43:50;6.27;;;5.67;;
17398;SDS011;8817;48.170;8.592;2023-04-06T09:46:17;6.20;;;5.70;;
17398;SDS011;8817;48.170;8.592;2023-04-06T09:48:48;6.30;;;5.70;;
17398;SDS011;8817;48.170;8.592;2023-04-06T09:51:17;6.40;;;5.80;;
17398;SDS011;8817;48.170;8.592;2023-04-06T09:53:45;6.20;;;5.70;;
17398;SDS011;8817;48.170;8.592;2023-04-06T09:56:17;6.00;;;5.50;;
17398;SDS011;8817;48.170;8.592;2023-04-06T09:58:51;6.80;;;6.10;;
17398;SDS011;8817;48.170;8.592;2023-04-06T10:01:23;7.50;;;6.23;;
17398;SDS011;8817;48.170;8.592;2023-04-06T10:03:55;7.27;;;6.20;;
17398;SDS011;8817;48.170;8.592;2023-04-06T10:06:28;6.65;;;6.07;;
17398;SDS011;8817;48.170;8.592;2023-04-06T10:09:00;6.47;;;5.88;;
17398;SDS011;8817;48.170;8.592;2023-04-06T10:11:31;6.70;;;6.00;;
17398;SDS011;8817;48.170;8.592;2023-04-06T10:13:58;6.45;;;5.72;;
17398;SDS011;8817;48.170;8.592;2023-04-06T10:16:25;6.93;;;6.23;;
17398;SDS011;8817;48.170;8.592;2023-04-06T10:18:55;6.45;;;5.55;;
17398;SDS011;8817;48.170;8.592;2023-04-06T10:21:25;7.82;;;6.35;;
17398;SDS011;8817;48.170;8.592;2023-04-06T10:23:55;7.07;;;6.15;;
17398;SDS011;8817;48.170;8.592;2023-04-06T10:26:25;8.40;;;6.20;;
17398;SDS011;8817;48.170;8.592;2023-04-06T10:29:01;6.77;;;6.07;;
17398;SDS011;8817;48.170;8.592;2023-04-06T10:31:29;6.72;;;6.03;;
17398;SDS011;8817;48.170;8.592;2023-04-06T10:33:57;8.68;;;6.10;;
17398;SDS011;8817;48.170;8.592;2023-04-06T10:36:25;6.60;;;5.95;;
17398;SDS011;8817;48.170;8.592;2023-04-06T10:38:53;7.75;;;6.10;;
17398;SDS011;8817;48.170;8.592;2023-04-06T10:41:22;12.68;;;6.32;;
17398;SDS011;8817;48.170;8.592;2023-04-06T10:43:55;8.52;;;5.75;;
17398;SDS011;8817;48.170;8.592;2023-04-06T10:46:26;8.20;;;7.10;;
17398;SDS011;8817;48.170;8.592;2023-04-06T10:48:54;8.13;;;6.63;;
17398;SDS011;8817;48.170;8.592;2023-04-06T10:51:24;7.28;;;6.57;;
17398;SDS011;8817;48.170;8.592;2023-04-06T10:53:53;8.75;;;6.10;;
17398;SDS011;8817;48.170;8.592;2023-04-06T10:56:21;10.00;;;6.45;;
17398;SDS011;8817;48.170;8.592;2023-04-06T10:58:51;7.32;;;6.63;;
17398;SDS011;8817;48.170;8.592;2023-04-06T11:01:22;7.68;;;6.47;;
17398;SDS011;8817;48.170;8.592;2023-04-06T11:03:53;6.78;;;6.07;;
17398;SDS011;8817;48.170;8.592;2023-04-06T11:06:23;6.93;;;6.22;;
17398;SDS011;8817;48.170;8.592;2023-04-06T11:08:52;9.85;;;6.00;;
17398;SDS011;8817;48.170;8.592;2023-04-06T11:11:20;6.50;;;5.90;;
17398;SDS011;8817;48.170;8.592;2023-04-06T11:13:49;6.60;;;6.00;;
17398;SDS011;8817;48.170;8.592;2023-04-06T11:16:18;7.07;;;5.93;;
17398;SDS011;8817;48.170;8.592;2023-04-06T11:18:51;6.70;;;6.10;;
17398;SDS011;8817;48.170;8.592;2023-04-06T11:21:20;8.27;;;6.43;;
17398;SDS011;8817;48.170;8.592;2023-04-06T11:24:03;9.43;;;6.45;;
17398;SDS011;8817;48.170;8.592;2023-04-06T11:26:36;8.95;;;6.85;;
17398;SDS011;8817;48.170;8.592;2023-04-06T11:29:04;6.43;;;5.85;;
17398;SDS011;8817;48.170;8.592;2023-04-06T11:31:31;8.95;;;6.82;;
17398;SDS011;8817;48.170;8.592;2023-04-06T11:34:09;8.05;;;6.45;;
17398;SDS011;8817;48.170;8.592;2023-04-06T11:36:39;6.65;;;6.10;;
17398;SDS011;8817;48.170;8.592;2023-04-06T11:39:07;6.88;;;6.28;;
17398;SDS011;8817;48.170;8.592;2023-04-06T11:41:35;7.38;;;6.18;;
17398;SDS011;8817;48.170;8.592;2023-04-06T11:44:02;6.35;;;5.72;;
17398;SDS011;8817;48.170;8.592;2023-04-06T11:46:29;6.88;;;6.28;;
17398;SDS011;8817;48.170;8.592;2023-04-06T11:48:58;6.43;;;5.80;;
17398;SDS011;8817;48.170;8.592;2023-04-06T11:51:27;5.95;;;5.45;;
17398;SDS011;8817;48.170;8.592;2023-04-06T11:53:54;6.30;;;5.80;;
17398;SDS011;8817;48.170;8.592;2023-04-06T11:56:25;6.47;;;5.97;;
17398;SDS011;8817;48.170;8.592;2023-04-06T11:58:53;6.90;;;5.82;;
17398;SDS011;8817;48.170;8.592;2023-04-06T12:01:21;7.07;;;5.82;;
17398;SDS011;8817;48.170;8.592;2023-04-06T12:03:48;6.40;;;5.68;;
17398;SDS011;8817;48.170;8.592;2023-04-06T12:06:16;6.70;;;6.03;;
17398;SDS011;8817;48.170;8.592;2023-04-06T12:08:44;7.13;;;6.43;;
17398;SDS011;8817;48.170;8.592;2023-04-06T12:11:11;7.63;;;6.68;;
17398;SDS011;8817;48.170;8.592;2023-04-06T12:13:39;8.40;;;5.50;;
17398;SDS011;8817;48.170;8.592;2023-04-06T12:16:06;6.25;;;5.75;;
17398;SDS011;8817;48.170;8.592;2023-04-06T12:18:33;6.22;;;5.63;;
17398;SDS011;8817;48.170;8.592;2023-04-06T12:21:00;6.40;;;5.80;;
17398;SDS011;8817;48.170;8.592;2023-04-06T12:23:27;6.00;;;5.57;;
17398;SDS011;8817;48.170;8.592;2023-04-06T12:25:55;6.30;;;5.80;;
17398;SDS011;8817;48.170;8.592;2023-04-06T12:28:22;6.28;;;5.70;;
17398;SDS011;8817;48.170;8.592;2023-04-06T12:30:52;6.60;;;5.95;;
17398;SDS011;8817;48.170;8.592;2023-04-06T12:33:19;6.38;;;5.88;;
17398;SDS011;8817;48.170;8.592;2023-04-06T12:35:46;6.68;;;6.07;;
17398;SDS011;8817;48.170;8.592;2023-04-06T12:38:13;9.57;;;6.15;;
17398;SDS011;8817;48.170;8.592;2023-04-06T12:40:41;5.75;;;5.30;;
17398;SDS011;8817;48.170;8.592;2023-04-06T12:43:09;6.70;;;6.10;;
17398;SDS011;8817;48.170;8.592;2023-04-06T12:45:38;7.82;;;6.40;;
17398;SDS011;8817;48.170;8.592;2023-04-06T12:48:05;8.32;;;6.20;;
17398;SDS011;8817;48.170;8.592;2023-04-06T12:50:32;6.50;;;5.90;;
17398;SDS011;8817;48.170;8.592;2023-04-06T12:52:59;6.43;;;5.80;;
17398;SDS011;8817;48.170;8.592;2023-04-06T12:55:29;6.57;;;5.90;;
17398;SDS011;8817;48.170;8.592;2023-04-06T12:57:59;6.47;;;5.88;;
17398;SDS011;8817;48.170;8.592;2023-04-06T13:00:27;6.10;;;5.60;;
17398;SDS011;8817;48.170;8.592;2023-04-06T13:02:55;6.28;;;5.68;;
17398;SDS011;8817;48.170;8.592;2023-04-06T13:05:22;6.65;;;6.03;;
17398;SDS011;8817;48.170;8.592;2023-04-06T13:07:49;6.25;;;5.65;;
17398;SDS011;8817;48.170;8.592;2023-04-06T13:10:16;5.70;;;5.25;;
17398;SDS011;8817;48.170;8.592;2023-04-06T13:12:43;6.40;;;5.82;;
17398;SDS011;8817;48.170;8.592;2023-04-06T13:15:10;6.43;;;5.82;;
17398;SDS011;8817;48.170;8.592;2023-04-06T13:17:39;6.45;;;5.90;;
17398;SDS011;8817;48.170;8.592;2023-04-06T13:20:06;10.45;;;6.47;;
17398;SDS011;8817;48.170;8.592;2023-04-06T13:22:34;9.55;;;6.18;;
17398;SDS011;8817;48.170;8.592;2023-04-06T13:25:01;15.90;;;7.10;;
17398;SDS011;8817;48.170;8.592;2023-04-06T13:27:28;8.75;;;6.50;;
17398;SDS011;8817;48.170;8.592;2023-04-06T13:29:58;6.32;;;5.72;;
17398;SDS011;8817;48.170;8.592;2023-04-06T13:32:25;7.15;;;5.80;;
17398;SDS011;8817;48.170;8.592;2023-04-06T13:34:55;5.90;;;5.30;;
17398;SDS011;8817;48.170;8.592;2023-04-06T13:37:23;6.22;;;5.60;;
17398;SDS011;8817;48.170;8.592;2023-04-06T13:39:50;5.70;;;5.20;;
17398;SDS011;8817;48.170;8.592;2023-04-06T13:42:17;6.10;;;5.50;;
17398;SDS011;8817;48.170;8.592;2023-04-06T13:44:44;5.88;;;5.38;;
17398;SDS011;8817;48.170;8.592;2023-04-06T13:47:12;5.80;;;5.30;;
17398;SDS011;8817;48.170;8.592;2023-04-06T13:49:40;5.53;;;5.10;;
17398;SDS011;8817;48.170;8.592;2023-04-06T13:52:08;5.95;;;5.43;;
17398;SDS011;8817;48.170;8.592;2023-04-06T13:54:36;8.98;;;5.45;;
17398;SDS011;8817;48.170;8.592;2023-04-06T13:57:03;5.97;;;5.43;;
17398;SDS011;8817;48.170;8.592;2023-04-06T13:59:33;6.10;;;5.57;;
17398;SDS011;8817;48.170;8.592;2023-04-06T14:02:00;5.95;;;5.32;;
17398;SDS011;8817;48.170;8.592;2023-04-06T14:04:27;5.85;;;5.30;;
17398;SDS011;8817;48.170;8.592;2023-04-06T14:06:54;6.22;;;5.50;;
17398;SDS011;8817;48.170;8.592;2023-04-06T14:09:23;7.38;;;5.80;;
17398;SDS011;8817;48.170;8.592;2023-04-06T14:11:50;7.07;;;5.93;;
17398;SDS011;8817;48.170;8.592;2023-04-06T14:14:18;6.38;;;5.72;;
17398;SDS011;8817;48.170;8.592;2023-04-06T14:16:45;5.20;;;4.90;;
17398;SDS011;8817;48.170;8.592;2023-04-06T14:19:13;5.68;;;5.18;;
17398;SDS011;8817;48.170;8.592;2023-04-06T14:21:40;6.60;;;5.60;;
17398;SDS011;8817;48.170;8.592;2023-04-06T14:24:08;5.75;;;5.25;;
17398;SDS011;8817;48.170;8.592;2023-04-06T14:26:37;7.32;;;5.20;;
17398;SDS011;8817;48.170;8.592;2023-04-06T14:29:04;5.85;;;5.35;;
17398;SDS011;8817;48.170;8.592;2023-04-06T14:31:31;5.38;;;4.97;;
17398;SDS011;8817;48.170;8.592;2023-04-06T14:34:00;5.50;;;5.10;;
17398;SDS011;8817;48.170;8.592;2023-04-06T14:36:28;12.43;;;5.50;;
17398;SDS011;8817;48.170;8.592;2023-04-06T14:39:01;4.72;;;4.40;;
17398;SDS011;8817;48.170;8.592;2023-04-06T14:41:29;5.20;;;4.72;;
17398;SDS011;8817;48.170;8.592;2023-04-06T14:43:58;5.25;;;4.75;;
17398;SDS011;8817;48.170;8.592;2023-04-06T14:46:25;5.20;;;4.80;;
17398;SDS011;8817;48.170;8.592;2023-04-06T14:48:53;4.80;;;4.50;;
17398;SDS011;8817;48.170;8.592;2023-04-06T14:51:21;5.05;;;4.65;;
17398;SDS011;8817;48.170;8.592;2023-04-06T14:53:48;5.18;;;4.82;;
17398;SDS011;8817;48.170;8.592;2023-04-06T14:56:18;5.18;;;4.75;;
17398;SDS011;8817;48.170;8.592;2023-04-06T14:58:46;4.82;;;4.45;;
17398;SDS011;8817;48.170;8.592;2023-04-06T15:01:14;4.90;;;4.60;;
17398;SDS011;8817;48.170;8.592;2023-04-06T15:03:41;5.28;;;4.90;;